Time;durP1;ratioP1;P1;durP2;ratioP2;P2;SDS_P1;SDS_P2;PMS_P1;PMS_P2;Temp;Humidity;BMP_temperature;BMP_pressure;BME280_temperature;BME280_humidity;BME280_pressure;Samples;Min_cycle;Max_cycle;Signal;HPM_P1;HPM_P2
2022/06/28 00:02:21;;;;;;;1.65;0.30;;;;;;;14.69;66.48;101026.34;5116200;28;20102;-79
2022/06/28 00:04:47;;;;;;;1.40;0.57;;;;;;;14.69;66.72;101019.94;5078117;28;20048;-79
2022/06/28 00:07:13;;;;;;;1.63;0.63;;;;;;;14.65;66.96;101014.13;5097726;28;20115;-79
2022/06/28 00:09:38;;;;;;;1.75;0.35;;;;;;;14.63;66.69;101013.63;5094836;27;20027;-79
2022/06/28 00:12:04;;;;;;;4.32;0.55;;;;;;;14.59;66.58;101014.53;5103012;28;20040;-79
2022/06/28 00:17:13;;;;;;;1.75;0.40;;;;;;;14.53;66.82;101011.00;5096340;28;20047;-79
2022/06/28 00:19:39;;;;;;;2.05;0.50;;;;;;;14.50;67.08;101014.41;5079624;28;20036;-79
2022/06/28 00:22:04;;;;;;;1.83;0.50;;;;;;;14.44;66.94;101010.88;5076055;28;20490;-79
2022/06/28 00:24:30;;;;;;;1.38;0.40;;;;;;;14.44;66.80;101004.47;5091480;28;20403;-79
2022/06/28 00:26:55;;;;;;;1.73;0.45;;;;;;;14.40;66.75;100998.66;5108706;28;20567;-79
2022/06/28 00:29:21;;;;;;;1.27;0.45;;;;;;;14.40;66.78;101001.47;5072740;28;20024;-79
2022/06/28 00:31:46;;;;;;;3.60;0.73;;;;;;;14.32;66.68;101002.16;5091405;28;20412;-79
2022/06/28 00:34:12;;;;;;;3.38;0.55;;;;;;;14.30;67.20;100996.88;5106778;28;20490;-79
2022/06/28 00:36:38;;;;;;;2.33;0.45;;;;;;;14.23;67.13;100990.84;5097640;28;20125;-78
2022/06/28 00:39:03;;;;;;;2.60;0.60;;;;;;;14.23;67.30;100990.00;5075781;28;20035;-79
2022/06/28 00:41:29;;;;;;;3.28;0.70;;;;;;;14.20;67.15;100993.44;5080971;28;20027;-79
2022/06/28 00:43:54;;;;;;;1.92;0.50;;;;;;;14.15;67.26;100994.38;5112001;28;20034;-79
2022/06/28 00:46:20;;;;;;;3.78;0.63;;;;;;;14.11;67.20;100992.47;5097626;28;20095;-79
2022/06/28 00:48:46;;;;;;;2.05;0.55;;;;;;;14.07;67.53;100993.09;5112966;28;20032;-79
2022/06/28 00:51:11;;;;;;;2.53;0.50;;;;;;;13.99;67.56;100995.75;5111356;28;20382;-79
2022/06/28 00:53:37;;;;;;;1.83;0.60;;;;;;;13.97;68.13;100995.22;5112828;28;20415;-79
2022/06/28 00:56:02;;;;;;;2.67;0.73;;;;;;;13.91;67.94;100994.50;5107505;28;20039;-79
2022/06/28 00:58:28;;;;;;;2.53;0.60;;;;;;;13.88;68.13;100989.50;5093253;28;20118;-79
2022/06/28 01:00:53;;;;;;;1.85;0.85;;;;;;;13.80;68.43;100991.03;5105120;28;20518;-79
2022/06/28 01:03:21;;;;;;;1.45;0.60;;;;;;;13.80;68.50;100981.84;5076211;28;20051;-79
2022/06/28 01:05:46;;;;;;;1.42;0.50;;;;;;;13.73;68.36;100985.00;5083135;28;20024;-79
2022/06/28 01:08:12;;;;;;;4.30;0.50;;;;;;;13.73;68.30;100989.75;5110081;28;20028;-79
2022/06/28 01:10:38;;;;;;;3.63;0.70;;;;;;;13.66;67.95;100992.94;5090612;28;20036;-79
2022/06/28 01:13:04;;;;;;;2.63;0.60;;;;;;;13.62;68.22;100991.88;5089838;28;20050;-79
2022/06/28 01:15:30;;;;;;;2.55;0.70;;;;;;;13.55;68.43;100995.06;5093007;28;20391;-79
2022/06/28 01:17:55;;;;;;;2.50;0.77;;;;;;;13.54;68.63;100998.97;5079690;28;20024;-79
2022/06/28 01:20:21;;;;;;;1.90;0.60;;;;;;;13.46;68.79;100994.09;5095568;28;20028;-79
2022/06/28 01:22:47;;;;;;;1.45;0.55;;;;;;;13.45;69.02;100992.41;5110089;28;20059;-79
2022/06/28 01:25:12;;;;;;;1.75;0.50;;;;;;;13.39;69.04;100994.44;5091025;28;20557;-79
2022/06/28 01:27:38;;;;;;;3.40;0.70;;;;;;;13.40;69.39;100998.09;5090484;28;20714;-79
2022/06/28 01:30:04;;;;;;;3.83;0.70;;;;;;;13.33;69.25;100998.44;5084759;28;20027;-79
2022/06/28 01:32:29;;;;;;;1.88;0.60;;;;;;;13.29;69.49;100994.59;5088783;28;20027;-79
2022/06/28 01:34:55;;;;;;;3.45;0.93;;;;;;;13.25;69.42;100998.25;5065939;28;20031;-79
2022/06/28 01:37:22;;;;;;;4.32;1.08;;;;;;;13.20;69.76;100996.34;5094383;28;20148;-79
2022/06/28 01:39:47;;;;;;;3.17;0.82;;;;;;;13.16;69.55;100995.31;5098469;28;20036;-79
2022/06/28 01:42:12;;;;;;;2.88;0.63;;;;;;;13.15;69.68;101000.06;5090935;28;20698;-79
2022/06/28 01:44:38;;;;;;;2.97;0.60;;;;;;;13.11;69.68;101004.56;5092328;28;20023;-79
2022/06/28 01:47:04;;;;;;;2.38;0.70;;;;;;;13.03;69.64;101002.44;5082368;28;20028;-79
2022/06/28 01:49:29;;;;;;;4.32;0.60;;;;;;;13.01;69.81;101003.84;5081600;28;20123;-80
2022/06/28 01:51:55;;;;;;;2.38;0.63;;;;;;;12.99;69.89;101004.19;5111269;28;20039;-79
2022/06/28 01:54:20;;;;;;;2.35;0.80;;;;;;;12.95;69.95;101000.31;5023531;28;1517606;-79
2022/06/28 01:56:46;;;;;;;2.47;0.85;;;;;;;12.89;70.15;101001.50;5075966;28;20043;-79
2022/06/28 01:59:11;;;;;;;1.88;0.50;;;;;;;12.88;69.86;101011.00;5107664;28;20043;-80
2022/06/28 02:01:37;;;;;;;1.40;0.70;;;;;;;12.87;69.95;101007.41;5094089;28;20377;-79
2022/06/28 02:04:18;;;;;;;1.85;0.50;;;;;;;12.81;70.09;101000.19;5099250;28;20032;-80
2022/06/28 02:06:44;;;;;;;2.28;0.65;;;;;;;12.75;70.55;101001.41;5107537;28;20062;-80
2022/06/28 02:09:09;;;;;;;3.58;0.50;;;;;;;12.73;70.17;101007.28;5110861;28;20372;-80
2022/06/28 02:11:35;;;;;;;2.15;0.63;;;;;;;12.70;70.43;100999.53;5087423;28;20046;-80
2022/06/28 02:14:01;;;;;;;2.00;0.52;;;;;;;12.66;70.50;101000.41;5075337;28;20150;-79
2022/06/28 02:16:26;;;;;;;1.20;0.60;;;;;;;12.66;70.38;101000.41;5112027;28;20111;-80
2022/06/28 02:18:52;;;;;;;3.10;0.68;;;;;;;12.63;70.13;100998.19;5092439;27;20024;-79
2022/06/28 02:21:17;;;;;;;2.67;0.70;;;;;;;12.57;70.79;100993.81;5093720;28;20049;-80
2022/06/28 02:23:43;;;;;;;2.92;0.63;;;;;;;12.55;70.56;100991.31;5090278;28;20030;-80
2022/06/28 02:26:11;;;;;;;2.17;0.60;;;;;;;12.51;70.89;100993.03;5080867;28;20426;-80
2022/06/28 02:28:39;;;;;;;1.08;0.60;;;;;;;12.48;71.01;100988.03;5111799;28;20039;-80
2022/06/28 02:31:11;;;;;;;4.72;0.73;;;;;;;12.42;71.18;100983.66;5085169;28;20111;-80
2022/06/28 02:33:37;;;;;;;2.72;0.63;;;;;;;12.41;70.99;100980.03;5104496;28;20027;-80
2022/06/28 02:41:30;;;;;;;3.38;0.63;;;;;;;12.33;71.27;100975.13;5092478;28;20119;-79
2022/06/28 02:43:56;;;;;;;2.95;0.70;;;;;;;12.28;71.35;100980.72;5096078;28;20024;-79
2022/06/28 02:46:21;;;;;;;2.20;0.50;;;;;;;12.22;71.59;100979.94;5087668;27;20388;-80
2022/06/28 02:48:47;;;;;;;0.80;0.50;;;;;;;12.19;71.67;100976.94;5091187;28;20019;-79
2022/06/28 02:51:12;;;;;;;2.92;0.77;;;;;;;12.14;71.52;100975.03;5095922;28;20369;-80
2022/06/28 02:53:38;;;;;;;1.63;0.70;;;;;;;12.14;71.56;100971.41;5092498;28;20027;-80
2022/06/28 02:56:03;;;;;;;2.78;0.75;;;;;;;12.12;71.65;100974.50;5098701;28;20055;-79
2022/06/28 02:58:29;;;;;;;4.18;0.90;;;;;;;12.09;71.47;100969.53;5090034;28;20093;-80
2022/06/28 03:00:55;;;;;;;2.80;0.80;;;;;;;12.06;71.88;100970.09;5059950;28;20024;-80
2022/06/28 03:03:20;;;;;;;4.28;0.77;;;;;;;12.04;71.49;100970.41;5090274;28;20434;-80
2022/06/28 03:05:46;;;;;;;2.25;0.60;;;;;;;12.01;71.34;100972.94;5084519;28;20035;-80
2022/06/28 03:08:11;;;;;;;5.70;0.70;;;;;;;12.00;71.70;100968.47;5078502;27;20027;-80
2022/06/28 03:10:37;;;;;;;3.88;0.82;;;;;;;11.96;71.81;100967.41;5090729;28;20036;-80
2022/06/28 03:13:02;;;;;;;2.90;0.40;;;;;;;11.96;72.32;100972.97;5099127;28;20063;-80
2022/06/28 03:15:28;;;;;;;4.18;1.00;;;;;;;11.93;72.07;100970.78;5093004;28;20036;-80
2022/06/28 03:17:53;;;;;;;4.60;1.40;;;;;;;11.89;72.25;100983.59;5078497;28;20074;-80
2022/06/28 03:20:19;;;;;;;4.47;0.93;;;;;;;11.88;71.93;100968.03;5082618;28;20028;-79
2022/06/28 03:22:44;;;;;;;4.05;0.70;;;;;;;11.81;72.18;100958.06;5092956;28;20392;-79
2022/06/28 03:25:10;;;;;;;2.20;0.70;;;;;;;11.79;71.87;100965.84;5077808;28;20032;-80
2022/06/28 03:27:35;;;;;;;3.47;0.88;;;;;;;11.77;71.98;100965.31;5098728;28;20039;-80
2022/06/28 03:30:02;;;;;;;2.75;0.80;;;;;;;11.76;72.00;100966.44;5081837;28;20034;-80
2022/06/28 03:32:28;;;;;;;2.72;0.65;;;;;;;11.74;72.11;100974.25;5077816;28;20391;-80
2022/06/28 03:34:53;;;;;;;3.60;0.70;;;;;;;11.76;72.29;100968.41;5089556;28;20024;-79
2022/06/28 03:37:18;;;;;;;2.35;0.82;;;;;;;11.72;72.56;100967.28;5087526;28;20042;-79
2022/06/28 03:39:44;;;;;;;3.35;0.85;;;;;;;11.68;72.18;100967.06;5094277;28;20388;-79
2022/06/28 03:42:10;;;;;;;1.98;0.80;;;;;;;11.67;72.53;100973.72;5092110;28;20046;-79
2022/06/28 03:44:35;;;;;;;4.53;0.88;;;;;;;11.59;72.45;100969.63;5097465;28;20092;-80
2022/06/28 03:47:01;;;;;;;3.03;0.75;;;;;;;11.61;72.54;100969.31;5089476;28;20069;-80
2022/06/28 03:49:26;;;;;;;3.25;0.90;;;;;;;11.59;72.49;100974.38;5087405;28;20035;-80
2022/06/28 03:51:52;;;;;;;1.70;0.70;;;;;;;11.58;72.47;100972.69;5107840;28;20476;-79
2022/06/28 03:54:17;;;;;;;2.53;0.80;;;;;;;11.57;72.54;100973.81;5079957;28;20032;-79
2022/06/28 03:56:43;;;;;;;2.53;0.85;;;;;;;11.55;72.65;100982.44;5074708;28;20039;-79
2022/06/28 03:59:08;;;;;;;2.65;0.73;;;;;;;11.54;72.45;100978.00;5109916;28;20030;-80
2022/06/28 04:01:34;;;;;;;3.13;0.80;;;;;;;11.54;72.74;100974.41;5091857;28;20028;-80
2022/06/28 04:03:59;;;;;;;3.78;0.90;;;;;;;11.50;72.94;100971.34;5088399;28;20032;-80
2022/06/28 04:06:25;;;;;;;2.08;0.68;;;;;;;11.49;72.75;100978.03;5080845;27;20023;-79
2022/06/28 04:08:50;;;;;;;3.95;0.85;;;;;;;11.53;72.71;100969.94;5090940;28;20031;-80
2022/06/28 04:11:16;;;;;;;2.95;0.70;;;;;;;11.47;72.63;100979.44;5092048;28;20041;-80
2022/06/28 04:13:51;;;;;;;1.42;0.50;;;;;;;11.44;73.16;100971.69;5095896;28;20372;-80
2022/06/28 04:16:17;;;;;;;2.97;0.85;;;;;;;11.41;72.97;100970.31;5099047;28;20110;-80
2022/06/28 04:18:45;;;;;;;3.13;0.70;;;;;;;11.44;73.23;100971.69;5080831;28;20063;-80
2022/06/28 04:21:11;;;;;;;2.40;0.60;;;;;;;11.45;73.08;100978.91;5093627;27;20038;-80
2022/06/28 04:23:37;;;;;;;2.42;0.82;;;;;;;11.44;73.48;100969.72;5109919;28;20062;-80
2022/06/28 04:26:03;;;;;;;2.63;0.50;;;;;;;11.40;73.75;100969.47;5088991;28;20035;-80
2022/06/28 04:28:28;;;;;;;3.08;0.70;;;;;;;11.41;74.24;100965.56;5072166;28;20093;-79
2022/06/28 04:30:54;;;;;;;3.13;0.75;;;;;;;11.48;74.36;100967.19;5078418;28;20059;-80
2022/06/28 04:33:20;;;;;;;3.50;0.70;;;;;;;11.50;74.44;100965.78;5071664;28;20024;-80
2022/06/28 04:35:45;;;;;;;4.60;0.82;;;;;;;11.53;74.75;100972.72;5102863;28;20057;-80
2022/06/28 04:38:11;;;;;;;2.65;1.05;;;;;;;11.60;75.24;100964.91;5092632;28;20043;-79
2022/06/28 04:40:36;;;;;;;6.90;0.93;;;;;;;11.65;76.00;100970.44;5082705;28;20472;-80
2022/06/28 04:43:02;;;;;;;2.97;0.80;;;;;;;11.75;76.16;100961.16;5097832;28;20106;-79
2022/06/28 04:45:28;;;;;;;4.25;0.60;;;;;;;11.82;77.10;100965.25;5104524;28;20027;-79
2022/06/28 04:47:54;;;;;;;3.38;0.90;;;;;;;11.90;79.09;100969.41;5090566;28;20024;-79
2022/06/28 04:50:19;;;;;;;5.15;0.93;;;;;;;12.01;83.88;100968.19;5100958;28;20034;-79
2022/06/28 04:52:45;;;;;;;2.78;0.70;;;;;;;12.10;82.54;100965.59;5109619;28;20023;-80
2022/06/28 04:55:10;;;;;;;7.57;0.90;;;;;;;12.21;81.07;100956.03;5077331;28;20381;-80
2022/06/28 04:57:36;;;;;;;3.65;0.70;;;;;;;12.34;80.51;100957.28;5057594;28;20031;-79
2022/06/28 05:00:02;;;;;;;3.97;0.80;;;;;;;12.48;78.86;100960.19;5079618;28;20043;-79
2022/06/28 05:02:27;;;;;;;4.10;0.63;;;;;;;12.62;77.27;100952.78;5097125;28;20034;-79
2022/06/28 05:04:53;;;;;;;5.15;0.93;;;;;;;12.78;75.55;100947.00;5074713;28;20040;-79
2022/06/28 05:07:19;;;;;;;3.28;0.80;;;;;;;12.91;75.07;100949.09;5108521;28;20032;-79
2022/06/28 05:09:44;;;;;;;4.15;1.08;;;;;;;13.05;74.59;100944.41;5092297;28;20068;-79
2022/06/28 05:12:10;;;;;;;2.63;0.60;;;;;;;13.19;73.58;100939.75;5104913;28;20361;-80
2022/06/28 05:14:35;;;;;;;3.17;0.65;;;;;;;13.35;73.27;100942.34;5108382;28;20027;-80
2022/06/28 05:17:01;;;;;;;3.33;0.80;;;;;;;13.48;72.83;100944.38;5068131;28;20053;-80
2022/06/28 05:19:27;;;;;;;1.83;0.70;;;;;;;13.64;72.21;100940.19;5091119;28;20028;-80
2022/06/28 05:21:53;;;;;;;3.10;0.80;;;;;;;13.80;72.38;100939.97;5080504;28;20062;-79
2022/06/28 05:24:18;;;;;;;2.72;0.60;;;;;;;13.97;70.97;100934.63;5097244;28;20035;-80
2022/06/28 05:26:44;;;;;;;3.17;0.80;;;;;;;14.16;70.26;100933.75;5077294;28;20032;-80
2022/06/28 05:29:09;;;;;;;2.53;0.60;;;;;;;14.34;70.17;100935.59;5093052;28;20032;-80
2022/06/28 05:31:35;;;;;;;3.08;0.55;;;;;;;14.52;69.21;100934.72;5093871;28;20028;-79
2022/06/28 05:34:01;;;;;;;3.58;0.80;;;;;;;14.72;68.76;100933.47;5101506;28;20081;-80
2022/06/28 05:36:29;;;;;;;3.58;0.65;;;;;;;14.93;68.36;100930.22;5084602;28;20043;-80
2022/06/28 05:38:55;;;;;;;4.25;0.95;;;;;;;15.12;67.83;100928.13;5095847;28;20070;-80
2022/06/28 05:41:21;;;;;;;4.72;0.80;;;;;;;15.31;68.07;100924.34;5097553;28;20028;-80
2022/06/28 05:43:46;;;;;;;2.92;0.60;;;;;;;15.51;66.96;100931.44;5080296;28;20032;-80
2022/06/28 05:46:11;;;;;;;2.75;0.60;;;;;;;15.72;66.62;100929.00;5109586;28;20054;-81
2022/06/28 05:48:37;;;;;;;3.55;0.80;;;;;;;15.91;66.10;100926.81;5097879;28;20028;-80
2022/06/28 05:51:03;;;;;;;4.22;0.98;;;;;;;16.11;65.60;100924.63;5096172;28;20047;-80
2022/06/28 05:53:29;;;;;;;4.38;0.90;;;;;;;16.29;65.11;100921.56;5078231;28;20092;-79
2022/06/28 05:55:55;;;;;;;4.68;0.93;;;;;;;16.46;64.96;100917.19;5083631;28;20551;-79
2022/06/28 05:58:20;;;;;;;2.92;0.70;;;;;;;16.65;64.30;100914.94;5078439;28;20019;-80
2022/06/28 06:00:46;;;;;;;2.67;0.75;;;;;;;16.87;63.85;100916.03;5077077;28;20400;-80
2022/06/28 06:03:11;;;;;;;3.28;0.75;;;;;;;17.03;63.59;100920.03;5093481;28;20039;-79
2022/06/28 06:05:37;;;;;;;5.63;1.00;;;;;;;17.24;63.00;100911.78;5093277;28;20156;-80
2022/06/28 06:08:02;;;;;;;2.60;0.70;;;;;;;17.40;62.62;100912.94;5066570;28;20031;-80
2022/06/28 06:10:28;;;;;;;3.10;0.90;;;;;;;17.60;62.39;100907.81;5105807;28;20028;-80
2022/06/28 06:12:53;;;;;;;4.35;0.85;;;;;;;17.77;61.77;100909.75;5106897;28;20032;-80
2022/06/28 06:15:20;;;;;;;4.53;0.70;;;;;;;17.94;61.73;100908.94;5080590;28;20042;-72
2022/06/28 06:17:46;;;;;;;5.13;0.98;;;;;;;18.10;61.55;100915.66;5118095;28;20023;-71
2022/06/28 06:20:11;;;;;;;5.75;0.82;;;;;;;18.27;61.01;100903.53;5118582;28;20031;-72
2022/06/28 06:22:37;;;;;;;4.53;1.20;;;;;;;18.45;60.94;100912.75;5083097;28;20036;-72
2022/06/28 06:25:03;;;;;;;5.97;0.90;;;;;;;18.64;59.97;100910.34;5107483;28;20042;-71
2022/06/28 06:27:29;;;;;;;6.97;1.02;;;;;;;18.79;59.92;100900.50;5110954;28;20024;-71
2022/06/28 06:29:54;;;;;;;3.53;0.82;;;;;;;18.95;59.39;100895.94;5090489;28;20035;-71
2022/06/28 06:32:20;;;;;;;3.05;1.02;;;;;;;19.10;59.17;100896.50;5093053;28;20631;-72
2022/06/28 06:34:46;;;;;;;6.00;1.05;;;;;;;19.24;59.13;100896.22;5076865;28;20083;-71
2022/06/28 06:37:11;;;;;;;5.85;1.00;;;;;;;19.36;58.75;100888.69;5092607;28;20047;-72
2022/06/28 06:39:37;;;;;;;3.47;0.82;;;;;;;19.51;58.40;100883.56;5081650;28;20028;-72
2022/06/28 06:42:02;;;;;;;2.75;0.60;;;;;;;19.66;58.21;100891.41;5091385;28;20502;-72
2022/06/28 06:44:28;;;;;;;3.33;1.05;;;;;;;19.79;57.96;100892.28;5091968;28;20084;-72
2022/06/28 06:46:55;;;;;;;3.50;1.00;;;;;;;19.95;57.78;100889.63;5092467;28;20032;-71
2022/06/28 06:49:20;;;;;;;4.28;0.98;;;;;;;20.01;57.87;100886.22;5111668;28;20031;-72
2022/06/28 06:51:48;;;;;;;3.50;0.98;;;;;;;20.16;57.19;100893.19;5075743;28;20032;-71
2022/06/28 06:54:13;;;;;;;3.65;0.70;;;;;;;20.29;57.04;100903.31;5080737;28;20048;-72
2022/06/28 06:56:40;;;;;;;5.57;0.88;;;;;;;20.44;56.72;100895.34;5082513;28;20111;-71
2022/06/28 06:59:07;;;;;;;3.80;0.70;;;;;;;20.59;56.68;100893.81;5082537;28;20039;-72
2022/06/28 07:01:33;;;;;;;2.20;0.65;;;;;;;20.70;56.42;100898.66;5093669;28;20038;-71
2022/06/28 07:03:59;;;;;;;2.40;0.63;;;;;;;20.83;56.25;100902.28;5065467;28;20035;-72
2022/06/28 07:06:25;;;;;;;4.78;0.75;;;;;;;20.94;56.05;100899.81;5101907;27;20538;-72
2022/06/28 07:08:50;;;;;;;5.47;0.80;;;;;;;21.07;55.59;100892.97;5066898;28;20058;-72
2022/06/28 07:11:15;;;;;;;3.47;0.70;;;;;;;21.24;55.17;100891.88;5079197;28;20491;-72
2022/06/28 07:13:41;;;;;;;4.22;0.93;;;;;;;21.33;55.96;100894.53;5076094;28;20031;-71
2022/06/28 07:16:06;;;;;;;4.43;0.88;;;;;;;21.53;54.82;100892.75;5077550;28;20055;-71
2022/06/28 07:18:32;;;;;;;2.50;0.60;;;;;;;21.66;54.34;100890.69;5077531;28;20148;-71
2022/06/28 07:20:58;;;;;;;4.05;0.80;;;;;;;21.85;53.86;100897.31;5099143;28;20108;-72
2022/06/28 07:23:24;;;;;;;4.28;0.77;;;;;;;21.99;53.89;100905.34;5062092;28;20036;-72
2022/06/28 07:25:49;;;;;;;5.70;1.23;;;;;;;22.13;53.87;100892.78;5065000;28;20031;-72
2022/06/28 07:28:14;;;;;;;3.60;0.82;;;;;;;22.26;53.23;100894.41;5075051;28;20039;-72
2022/06/28 07:30:40;;;;;;;3.58;0.90;;;;;;;22.40;53.32;100891.94;5079501;28;20034;-72
2022/06/28 07:33:06;;;;;;;6.10;0.93;;;;;;;22.56;52.02;100888.25;5064307;28;20035;-72
2022/06/28 07:35:31;;;;;;;6.65;1.13;;;;;;;22.65;52.18;100886.03;5098739;28;20035;-72
2022/06/28 07:37:57;;;;;;;4.07;0.90;;;;;;;22.77;51.82;100887.97;5077531;28;20064;-71
2022/06/28 07:40:22;;;;;;;4.72;1.13;;;;;;;22.88;51.44;100887.03;5081740;28;20024;-72
2022/06/28 07:42:48;;;;;;;5.15;0.80;;;;;;;22.99;51.19;100890.13;5062144;28;20423;-72
2022/06/28 07:45:14;;;;;;;4.65;0.73;;;;;;;23.03;51.02;100882.53;5098966;28;20027;-72
2022/06/28 07:47:39;;;;;;;3.10;0.63;;;;;;;23.13;50.82;100883.97;5080611;28;20073;-71
2022/06/28 07:52:49;;;;;;;5.68;0.70;;;;;;;23.36;49.80;100884.06;5097391;28;20051;-72
2022/06/28 07:55:15;;;;;;;3.35;0.70;;;;;;;23.37;49.60;100880.03;5080724;28;20059;-72
2022/06/28 07:57:40;;;;;;;4.25;0.98;;;;;;;23.47;48.64;100881.47;5098343;28;20073;-72
2022/06/28 08:00:07;;;;;;;3.22;0.50;;;;;;;23.57;48.91;100880.88;5066590;28;20393;-72
2022/06/28 08:02:32;;;;;;;8.95;1.15;;;;;;;23.72;49.01;100873.50;5095854;28;20080;-72
2022/06/28 08:04:58;;;;;;;5.35;0.70;;;;;;;23.79;49.12;100880.13;5098214;28;20040;-72
2022/06/28 08:07:23;;;;;;;5.88;0.90;;;;;;;23.90;49.05;100866.13;5097867;28;20028;-72
2022/06/28 08:09:49;;;;;;;5.28;1.02;;;;;;;23.98;48.71;100867.09;5081366;28;20031;-72
2022/06/28 08:12:14;;;;;;;7.13;0.90;;;;;;;24.07;48.24;100860.00;5081258;28;20027;-72
2022/06/28 08:14:40;;;;;;;7.15;1.08;;;;;;;24.22;48.12;100857.41;5074429;28;20027;-72
2022/06/28 08:17:05;;;;;;;4.07;1.10;;;;;;;24.34;47.60;100864.88;5097966;28;20027;-72
2022/06/28 08:19:31;;;;;;;6.10;0.98;;;;;;;24.46;47.76;100867.53;5076732;28;20032;-72
2022/06/28 08:21:57;;;;;;;5.60;1.02;;;;;;;24.53;46.07;100862.81;5072052;28;20066;-72
2022/06/28 08:24:22;;;;;;;5.88;1.00;;;;;;;24.74;46.19;100850.97;5046695;28;20073;-72
2022/06/28 08:26:47;;;;;;;4.53;0.80;;;;;;;24.84;44.89;100863.69;5080504;28;20031;-71
2022/06/28 08:29:14;;;;;;;2.63;0.70;;;;;;;24.93;44.58;100855.72;5098140;28;20027;-72
2022/06/28 08:31:40;;;;;;;4.93;0.80;;;;;;;24.96;45.21;100859.78;5047594;28;20034;-72
2022/06/28 08:34:05;;;;;;;4.32;0.70;;;;;;;25.07;45.21;100860.75;5080588;28;20027;-71
2022/06/28 08:36:31;;;;;;;3.92;0.90;;;;;;;25.12;45.08;100868.16;5061970;28;20385;-71
2022/06/28 08:38:56;;;;;;;5.10;1.00;;;;;;;25.24;44.18;100858.59;5073273;28;20056;-72
2022/06/28 08:41:22;;;;;;;3.78;0.82;;;;;;;25.33;44.61;100851.41;5081059;28;20039;-71
2022/06/28 08:43:48;;;;;;;3.95;1.00;;;;;;;25.43;44.77;100855.59;5081118;28;20035;-71
2022/06/28 08:46:13;;;;;;;5.60;0.90;;;;;;;25.52;44.07;100852.44;5097695;28;20026;-71
2022/06/28 08:48:40;;;;;;;5.25;1.10;;;;;;;25.67;44.35;100853.44;5097691;28;20073;-71
2022/06/28 08:51:07;;;;;;;6.65;0.80;;;;;;;25.72;43.43;100855.94;5076490;28;20035;-71
2022/06/28 08:53:33;;;;;;;2.67;0.73;;;;;;;25.80;43.61;100843.44;5063171;28;20034;-72
2022/06/28 08:55:59;;;;;;;3.78;0.95;;;;;;;25.90;42.42;100848.44;5104795;28;20056;-72
2022/06/28 08:58:24;;;;;;;4.78;1.02;;;;;;;25.89;42.01;100843.16;5097407;28;20023;-72
2022/06/28 09:00:50;;;;;;;6.13;1.13;;;;;;;25.89;42.32;100845.97;5074487;28;20043;-72
2022/06/28 09:03:16;;;;;;;4.07;0.90;;;;;;;25.81;42.50;100847.91;5095562;28;20392;-71
2022/06/28 09:05:42;;;;;;;6.18;0.90;;;;;;;25.70;41.73;100835.59;5076351;28;20071;-71
2022/06/28 09:08:07;;;;;;;6.63;1.00;;;;;;;25.67;42.01;100847.75;5094916;28;20024;-72
2022/06/28 09:10:33;;;;;;;3.60;0.60;;;;;;;25.53;42.21;100845.56;5072216;28;20020;-72
2022/06/28 09:13:12;;;;;;;5.03;1.00;;;;;;;25.32;42.69;100844.06;5101672;28;20035;-72
2022/06/28 09:15:49;;;;;;;4.53;0.93;;;;;;;25.19;42.67;100846.38;5088773;28;20391;-72
2022/06/28 09:18:15;;;;;;;4.78;1.00;;;;;;;24.90;42.82;100850.78;5100817;28;20081;-72
2022/06/28 09:20:40;;;;;;;4.60;1.10;;;;;;;24.79;43.39;100843.31;5097002;27;20110;-71
2022/06/28 09:23:34;;;;;;;5.85;0.85;;;;;;;24.50;44.29;100854.25;5092939;28;20050;-72
2022/06/28 09:26:07;;;;;;;5.35;0.95;;;;;;;24.34;44.33;100847.84;5109213;28;20031;-73
2022/06/28 09:28:32;;;;;;;;;;;;;;;24.18;44.53;100845.16;5101541;28;20026;-73
2022/06/28 09:31:16;;;;;;;5.15;1.05;;;;;;;24.00;44.88;100847.69;5113128;28;19933;-72
2022/06/28 09:34:05;;;;;;;4.90;0.90;;;;;;;23.90;45.17;100845.47;5106992;27;20520;-78
2022/06/28 09:36:32;;;;;;;5.82;0.90;;;;;;;23.72;45.32;100834.59;5106522;28;20031;-78
2022/06/28 09:39:02;;;;;;;5.75;1.02;;;;;;;23.72;45.40;100837.44;5094182;28;20039;-78
2022/06/28 09:41:29;;;;;;;5.88;1.15;;;;;;;23.61;45.65;100830.72;5093997;28;20051;-78
2022/06/28 09:43:59;;;;;;;6.85;0.82;;;;;;;23.57;46.21;100830.66;5119343;28;20621;-78
2022/06/28 09:46:26;;;;;;;5.45;1.08;;;;;;;23.62;46.44;100835.19;5095254;28;20024;-78
2022/06/28 09:48:56;;;;;;;6.13;1.20;;;;;;;23.68;46.17;100835.69;5058096;28;20032;-79
2022/06/28 09:51:23;;;;;;;5.68;1.00;;;;;;;23.78;46.16;100846.47;5114306;27;20028;-78
2022/06/28 09:53:53;;;;;;;7.03;1.10;;;;;;;23.84;46.16;100837.25;5087054;28;20031;-78
2022/06/28 09:56:19;;;;;;;6.75;1.00;;;;;;;23.90;46.21;100836.94;5108109;28;20419;-78
2022/06/28 09:58:44;;;;;;;5.28;0.98;;;;;;;23.95;45.69;100834.63;5094281;28;20431;-78
2022/06/28 10:01:10;;;;;;;3.80;0.90;;;;;;;23.93;45.46;100841.88;5098194;27;20024;-78
2022/06/28 10:03:35;;;;;;;6.10;1.35;;;;;;;23.99;45.32;100832.69;5100590;28;20502;-78
2022/06/28 10:06:02;;;;;;;4.80;0.90;;;;;;;23.96;45.28;100835.44;5108356;28;20036;-78
2022/06/28 10:08:27;;;;;;;6.75;1.08;;;;;;;23.94;45.55;100837.84;5078205;28;20379;-78
2022/06/28 10:10:52;;;;;;;6.68;1.10;;;;;;;23.86;45.72;100837.72;5094131;28;20031;-78
2022/06/28 10:16:10;;;;;;;7.55;1.58;;;;;;;23.84;46.81;100831.59;5118417;28;20083;-78
2022/06/28 10:18:35;;;;;;;6.18;1.10;;;;;;;23.83;47.00;100838.47;5108520;28;20031;-79
2022/06/28 10:21:01;;;;;;;6.20;1.08;;;;;;;23.84;46.35;100834.41;5110767;28;20031;-79
2022/06/28 10:23:33;;;;;;;5.28;1.00;;;;;;;23.87;46.29;100832.84;5108338;28;20027;-79
2022/06/28 10:26:18;;;;;;;6.40;1.08;;;;;;;23.92;45.93;100828.88;5109176;28;20054;-78
2022/06/28 10:28:45;;;;;;;6.70;1.23;;;;;;;23.95;46.16;100828.94;5115111;28;20035;-78
2022/06/28 10:31:23;;;;;;;7.55;1.17;;;;;;;24.07;45.68;100827.94;5121690;27;20035;-79
2022/06/28 10:33:49;;;;;;;7.28;0.90;;;;;;;24.09;45.36;100817.84;5118077;27;20106;-78
2022/06/28 10:36:16;;;;;;;4.90;1.20;;;;;;;24.20;45.64;100817.22;5096174;28;20499;-78
2022/06/28 10:39:06;;;;;;;5.80;1.00;;;;;;;24.35;45.16;100812.59;5108529;28;20492;-78
2022/06/28 10:41:53;;;;;;;6.00;1.13;;;;;;;24.59;44.72;100806.50;5109316;28;20102;-79
2022/06/28 10:44:42;;;;;;;6.05;1.20;;;;;;;24.84;44.43;100811.75;5082816;28;20118;-79
2022/06/28 10:47:07;;;;;;;4.43;1.00;;;;;;;25.15;42.95;100800.00;5090539;27;20027;-78
2022/06/28 10:49:42;;;;;;;4.82;0.80;;;;;;;25.49;43.44;100802.03;5117781;28;20532;-79
2022/06/28 10:52:14;;;;;;;4.47;0.93;;;;;;;25.80;42.70;100795.06;5118068;27;20032;-78
2022/06/28 10:54:40;;;;;;;5.65;1.08;;;;;;;26.16;42.01;100798.25;5090715;28;20065;-78
2022/06/28 10:57:22;;;;;;;4.45;0.90;;;;;;;26.44;40.00;100791.94;5076049;28;20060;-79
2022/06/28 10:59:49;;;;;;;4.63;1.10;;;;;;;26.69;39.26;100783.59;5093359;28;20028;-78
2022/06/28 11:02:15;;;;;;;6.43;1.20;;;;;;;26.94;39.52;100773.19;5111996;27;20032;-79
2022/06/28 11:04:40;;;;;;;5.00;0.90;;;;;;;27.15;38.70;100765.94;5079338;27;20364;-79
2022/06/28 11:07:20;;;;;;;4.78;0.90;;;;;;;27.33;37.96;100761.13;5097382;28;20032;-79
2022/06/28 11:10:00;;;;;;;4.90;0.75;;;;;;;27.57;37.79;100764.44;5107720;28;20441;-79
2022/06/28 11:12:39;;;;;;;5.45;0.70;;;;;;;27.65;36.75;100766.09;5116392;27;20126;-79
2022/06/28 11:15:06;;;;;;;5.32;1.10;;;;;;;27.78;37.54;100758.78;5110463;28;20028;-79
2022/06/28 11:17:40;;;;;;;3.47;0.77;;;;;;;27.88;36.77;100768.59;5104173;28;20036;-79
2022/06/28 11:20:10;;;;;;;4.03;1.02;;;;;;;27.94;37.06;100752.69;5110930;28;20479;-79
2022/06/28 11:22:47;;;;;;;4.40;0.63;;;;;;;28.02;37.03;100756.34;5110288;28;20111;-79
2022/06/28 11:25:17;;;;;;;3.58;0.90;;;;;;;28.05;36.68;100746.97;5090424;28;20034;-79
2022/06/28 11:27:55;;;;;;;2.65;0.80;;;;;;;28.16;36.13;100752.69;5113876;28;20118;-79
2022/06/28 11:30:23;;;;;;;4.45;1.00;;;;;;;28.24;36.77;100740.84;5114625;28;20127;-79
2022/06/28 11:32:50;;;;;;;3.03;0.95;;;;;;;28.30;35.84;100744.09;5109742;28;20028;-79
2022/06/28 11:35:23;;;;;;;4.53;0.70;;;;;;;28.37;35.46;100746.16;5109690;28;21265;-79
2022/06/28 11:37:56;;;;;;;4.57;0.93;;;;;;;28.50;36.51;100742.47;5105770;28;20388;-79